createdAt,value
2023-04-15T00:01:20.113Z,11.47
2023-04-15T00:04:11.163Z,11.45
2023-04-15T00:07:03.018Z,11.44
2023-04-15T00:09:55.265Z,11.43
2023-04-15T00:12:45.886Z,11.42
2023-04-15T00:15:37.296Z,11.38
2023-04-15T00:18:29.621Z,11.37
2023-04-15T00:21:20.208Z,11.37
2023-04-15T00:24:10.620Z,11.41
2023-04-15T00:27:01.749Z,11.41
2023-04-15T00:29:52.739Z,11.41
2023-04-15T00:32:43.490Z,11.41
2023-04-15T00:35:34.380Z,11.40
2023-04-15T00:38:25.291Z,11.37
2023-04-15T00:41:16.540Z,11.35
2023-04-15T00:44:07.309Z,11.34
2023-04-15T00:46:57.893Z,11.33
2023-04-15T00:49:48.501Z,11.33
2023-04-15T00:52:39.094Z,11.31
2023-04-15T00:55:29.435Z,11.32
2023-04-15T00:58:20.379Z,11.34
2023-04-15T01:01:11.574Z,11.32
2023-04-15T01:04:02.476Z,11.30
2023-04-15T01:06:53.339Z,11.29
2023-04-15T01:09:44.120Z,11.27
2023-04-15T01:12:35.285Z,11.28
2023-04-15T01:15:25.930Z,11.29
2023-04-15T01:18:16.734Z,11.30
2023-04-15T01:21:08.079Z,11.28
2023-04-15T01:23:59.459Z,11.27
2023-04-15T01:26:50.469Z,11.27
2023-04-15T01:29:42.067Z,11.24
2023-04-15T01:32:32.319Z,11.21
2023-04-15T01:35:22.864Z,11.23
2023-04-15T01:38:15.500Z,11.27
2023-04-15T01:41:07.721Z,11.26
2023-04-15T01:43:58.116Z,11.23
2023-04-15T01:46:49.598Z,11.20
2023-04-15T01:49:40.107Z,11.13
2023-04-15T01:52:30.624Z,11.11
2023-04-15T01:55:21.314Z,11.10
2023-04-15T01:58:11.779Z,11.08
2023-04-15T02:01:04.113Z,11.07
2023-04-15T02:03:55.481Z,11.04
2023-04-15T02:06:46.153Z,11.00
2023-04-15T02:09:38.837Z,10.98
2023-04-15T02:12:31.804Z,10.99
2023-04-15T02:15:22.419Z,10.98
2023-04-15T02:18:13.634Z,10.97
2023-04-15T02:21:06.124Z,10.95
2023-04-15T02:23:57.230Z,10.90
2023-04-15T02:26:47.783Z,10.87
2023-04-15T02:29:39.445Z,10.81
2023-04-15T02:32:32.392Z,10.76
2023-04-15T02:35:25.891Z,10.74
2023-04-15T02:38:18.072Z,10.72
2023-04-15T02:41:08.757Z,10.69
2023-04-15T02:43:59.562Z,10.68
2023-04-15T02:46:52.633Z,10.68
2023-04-15T02:49:45.133Z,10.68
2023-04-15T02:52:35.825Z,10.65
2023-04-15T02:55:26.440Z,10.60
2023-04-15T02:58:17.144Z,10.60
2023-04-15T03:01:08.938Z,10.57
2023-04-15T03:03:59.836Z,10.56
2023-04-15T03:06:50.563Z,10.55
2023-04-15T03:09:41.476Z,10.54
2023-04-15T03:12:32.051Z,10.53
2023-04-15T03:15:23.501Z,10.50
2023-04-15T03:18:15.713Z,10.47
2023-04-15T03:21:07.409Z,10.45
2023-04-15T03:23:59.518Z,10.42
2023-04-15T03:26:50.254Z,10.41
2023-04-15T03:29:41.239Z,10.42
2023-04-15T03:32:32.517Z,10.41
2023-04-15T03:35:23.297Z,10.39
2023-04-15T03:38:13.929Z,10.41
2023-04-15T03:41:04.355Z,10.40
2023-04-15T03:43:55.743Z,10.38
2023-04-15T03:46:46.284Z,10.36
2023-04-15T03:49:36.816Z,10.37
2023-04-15T03:52:27.443Z,10.37
2023-04-15T03:55:18.098Z,10.39
2023-04-15T03:58:09.591Z,10.38
2023-04-15T04:00:59.968Z,10.38
2023-04-15T04:03:50.607Z,10.39
2023-04-15T04:06:41.227Z,10.41
2023-04-15T04:09:31.804Z,10.43
2023-04-15T04:12:22.493Z,10.43
2023-04-15T04:15:14.032Z,10.43
2023-04-15T04:18:04.642Z,10.40
2023-04-15T04:20:55.478Z,10.37
2023-04-15T04:23:45.800Z,10.34
2023-04-15T04:26:36.536Z,10.29
2023-04-15T04:29:27.056Z,10.26
2023-04-15T04:32:17.666Z,10.23
2023-04-15T04:35:08.942Z,10.21
2023-04-15T04:38:00.312Z,10.18
2023-04-15T04:40:51.330Z,10.18
2023-04-15T04:43:42.470Z,10.16
2023-04-15T04:46:33.110Z,10.15
2023-04-15T04:49:23.487Z,10.16
2023-04-15T04:52:14.014Z,10.16
2023-04-15T04:55:04.488Z,10.17
2023-04-15T04:57:55.233Z,10.19
2023-04-15T05:00:46.051Z,10.21
2023-04-15T05:03:36.991Z,10.20
2023-04-15T05:06:27.795Z,10.23
2023-04-15T05:09:18.350Z,10.30
2023-04-15T05:12:15.048Z,10.34
2023-04-15T05:15:07.284Z,10.36
2023-04-15T05:17:57.934Z,10.38
2023-04-15T05:20:50.162Z,10.43
2023-04-15T05:23:41.107Z,10.44
2023-04-15T05:26:31.677Z,10.49
2023-04-15T05:29:22.816Z,10.52
2023-04-15T05:32:13.325Z,10.53
2023-04-15T05:35:03.631Z,10.57
2023-04-15T05:37:54.111Z,10.62
2023-04-15T05:40:45.174Z,10.70
2023-04-15T05:43:35.596Z,10.74
2023-04-15T05:46:26.560Z,10.78
2023-04-15T05:49:17.043Z,10.77
2023-04-15T05:52:07.556Z,10.78
2023-04-15T05:54:58.257Z,10.80
2023-04-15T05:57:48.697Z,10.82
2023-04-15T06:00:39.393Z,10.86
2023-04-15T06:03:30.717Z,10.89
2023-04-15T06:06:21.901Z,10.89
2023-04-15T06:09:12.377Z,10.88
2023-04-15T06:12:03.069Z,10.88
2023-04-15T06:14:54.000Z,10.93
2023-04-15T06:17:44.698Z,10.97
2023-04-15T06:20:35.386Z,10.97
2023-04-15T06:23:26.951Z,10.96
2023-04-15T06:26:18.626Z,10.91
2023-04-15T06:29:09.249Z,10.87
2023-04-15T06:31:59.753Z,10.87
2023-04-15T06:34:50.131Z,10.86
2023-04-15T06:37:40.754Z,10.83
2023-04-15T06:40:31.466Z,10.85
2023-04-15T06:43:22.456Z,10.87
2023-04-15T06:46:13.116Z,10.86
2023-04-15T06:49:04.013Z,10.89
2023-04-15T06:51:54.710Z,10.92
2023-04-15T06:54:45.358Z,10.91
2023-04-15T06:57:36.183Z,10.86
2023-04-15T07:00:28.776Z,10.84
2023-04-15T07:03:19.268Z,10.81
2023-04-15T07:06:10.500Z,10.81
2023-04-15T07:09:01.940Z,10.82
2023-04-15T07:11:53.573Z,10.83
2023-04-15T07:14:44.661Z,10.81
2023-04-15T07:17:43.431Z,10.78
2023-04-15T07:20:34.290Z,10.77
2023-04-15T07:23:26.182Z,10.79
2023-04-15T07:26:16.973Z,10.81
2023-04-15T07:29:08.556Z,10.86
2023-04-15T07:31:59.609Z,10.90
2023-04-15T07:34:50.566Z,10.92
2023-04-15T07:37:44.904Z,10.91
2023-04-15T07:40:35.562Z,10.93
2023-04-15T07:43:25.899Z,10.90
2023-04-15T07:46:24.374Z,10.89
2023-04-15T07:49:15.748Z,10.90
2023-04-15T07:52:07.308Z,10.93
2023-04-15T07:54:57.650Z,10.97
2023-04-15T07:57:48.591Z,11.01
2023-04-15T08:00:39.562Z,11.04
2023-04-15T08:03:30.563Z,11.04
2023-04-15T08:06:21.245Z,11.03
2023-04-15T08:09:12.901Z,11.03
2023-04-15T08:12:03.333Z,11.04
2023-04-15T08:14:54.302Z,11.04
2023-04-15T08:18:05.277Z,11.06
2023-04-15T08:20:56.050Z,11.07
2023-04-15T08:23:52.388Z,11.07
2023-04-15T08:26:44.227Z,11.08
2023-04-15T08:29:35.984Z,11.09
2023-04-15T08:32:26.821Z,11.07
2023-04-15T08:35:18.282Z,11.08
2023-04-15T08:38:08.710Z,11.07
2023-04-15T08:40:59.687Z,11.11
2023-04-15T08:43:55.036Z,11.20
2023-04-15T08:46:45.886Z,11.31
2023-04-15T08:49:36.776Z,11.40
2023-04-15T08:52:28.379Z,11.45
2023-04-15T08:55:18.968Z,11.46
2023-04-15T08:58:10.752Z,11.52
2023-04-15T09:01:01.827Z,11.58
2023-04-15T09:03:54.686Z,11.54
2023-04-15T09:06:46.166Z,11.57
2023-04-15T09:09:37.563Z,11.61
2023-04-15T09:12:28.678Z,11.60
2023-04-15T09:15:19.444Z,11.61
2023-04-15T09:18:10.619Z,11.62
2023-04-15T09:21:09.110Z,11.64
2023-04-15T09:24:02.629Z,11.71
2023-04-15T09:26:56.660Z,11.78
2023-04-15T09:29:52.559Z,11.88
2023-04-15T09:32:52.843Z,12.01
2023-04-15T09:35:43.350Z,12.09
2023-04-15T09:38:33.787Z,12.26
2023-04-15T09:41:24.397Z,12.38
2023-04-15T09:44:26.292Z,12.49
2023-04-15T09:47:31.504Z,12.56
2023-04-15T09:50:22.627Z,12.64
2023-04-15T09:53:14.006Z,12.69
2023-04-15T09:56:07.953Z,12.81
2023-04-15T09:59:00.301Z,12.86
2023-04-15T10:01:50.680Z,12.85
2023-04-15T10:04:42.953Z,12.90
2023-04-15T10:07:33.456Z,12.94
2023-04-15T10:10:24.292Z,12.94
2023-04-15T10:13:14.701Z,12.88
2023-04-15T10:16:08.335Z,12.77
2023-04-15T10:18:59.480Z,12.65
2023-04-15T10:21:50.249Z,12.60
2023-04-15T10:24:47.347Z,12.58
2023-04-15T10:27:40.259Z,12.60
2023-04-15T10:30:31.780Z,12.66
2023-04-15T10:33:32.052Z,12.71
2023-04-15T10:36:23.598Z,12.72
2023-04-15T10:39:44.489Z,12.75
2023-04-15T10:42:39.804Z,12.74
2023-04-15T10:45:34.523Z,12.74
2023-04-15T10:48:26.418Z,12.72
2023-04-15T10:51:19.136Z,12.69
2023-04-15T10:54:14.593Z,12.68
2023-04-15T10:57:16.919Z,12.68
2023-04-15T11:00:14.818Z,12.64
2023-04-15T11:03:09.804Z,12.60
2023-04-15T11:06:01.412Z,12.59
2023-04-15T11:09:02.190Z,12.59
2023-04-15T11:12:12.105Z,12.56
2023-04-15T11:15:02.830Z,12.53
2023-04-15T11:17:53.722Z,12.55
2023-04-15T11:20:45.058Z,12.56
2023-04-15T11:23:37.621Z,12.59
2023-04-15T11:26:30.030Z,12.47
2023-04-15T11:29:21.502Z,12.39
2023-04-15T11:32:12.991Z,12.28
2023-04-15T11:35:03.602Z,12.12
2023-04-15T11:37:54.697Z,11.98
2023-04-15T11:40:47.126Z,11.79
2023-04-15T11:43:37.911Z,11.63
2023-04-15T11:46:32.753Z,11.45
2023-04-15T11:49:35.017Z,11.31
2023-04-15T11:52:28.179Z,11.22
2023-04-15T11:55:19.031Z,11.13
2023-04-15T11:58:15.092Z,11.02
2023-04-15T12:01:10.394Z,10.83
2023-04-15T12:04:03.122Z,10.68
2023-04-15T12:06:54.286Z,10.61
2023-04-15T12:09:45.594Z,10.63
2023-04-15T12:12:36.488Z,10.64
2023-04-15T12:15:27.352Z,10.67
2023-04-15T12:18:21.421Z,10.72
2023-04-15T12:21:15.518Z,10.78
2023-04-15T12:24:10.024Z,10.79
2023-04-15T12:27:04.927Z,10.74
2023-04-15T12:30:06.020Z,10.79
2023-04-15T12:32:56.731Z,10.89
2023-04-15T12:35:47.510Z,10.97
2023-04-15T12:38:37.941Z,11.06
2023-04-15T12:41:28.554Z,11.16
2023-04-15T12:44:19.081Z,11.28
2023-04-15T12:47:10.721Z,11.39
2023-04-15T12:50:01.435Z,11.43
2023-04-15T12:52:52.095Z,11.47
2023-04-15T12:55:42.892Z,11.49
2023-04-15T12:58:33.453Z,11.50
2023-04-15T13:01:25.387Z,11.45
2023-04-15T13:04:17.197Z,11.39
2023-04-15T13:07:10.137Z,11.39
2023-04-15T13:10:00.706Z,11.37
2023-04-15T13:12:53.707Z,11.36
2023-04-15T13:15:45.958Z,11.44
2023-04-15T13:18:38.758Z,11.59
2023-04-15T13:21:29.291Z,11.72
2023-04-15T13:24:22.807Z,11.76
2023-04-15T13:27:13.353Z,11.71
2023-04-15T13:30:04.017Z,11.65
2023-04-15T13:32:55.007Z,11.68
2023-04-15T13:35:45.479Z,11.76
2023-04-15T13:38:36.433Z,11.78
2023-04-15T13:41:27.413Z,11.71
2023-04-15T13:44:18.475Z,11.64
2023-04-15T13:47:13.113Z,11.60
2023-04-15T13:50:03.560Z,11.54
2023-04-15T13:52:54.258Z,11.49
2023-04-15T13:55:44.943Z,11.45
2023-04-15T13:58:35.753Z,11.41
2023-04-15T14:01:26.463Z,11.36
2023-04-15T14:04:17.266Z,11.33
2023-04-15T14:07:08.977Z,11.33
2023-04-15T14:10:00.386Z,11.30
2023-04-15T14:12:51.472Z,11.29
2023-04-15T14:15:42.432Z,11.30
2023-04-15T14:18:33.628Z,11.32
2023-04-15T14:21:23.991Z,11.34
2023-04-15T14:24:14.990Z,11.30
2023-04-15T14:27:08.783Z,11.30
2023-04-15T14:30:00.155Z,11.34
2023-04-15T14:32:50.641Z,11.38
2023-04-15T14:35:41.020Z,11.41
2023-04-15T14:38:33.826Z,11.42
2023-04-15T14:41:24.665Z,11.47
2023-04-15T14:44:15.137Z,11.45
2023-04-15T14:47:05.651Z,11.48
2023-04-15T14:49:56.434Z,11.55
2023-04-15T14:52:46.909Z,11.59
2023-04-15T14:55:37.289Z,11.59
2023-04-15T14:58:27.771Z,11.63
2023-04-15T15:01:18.410Z,11.65
2023-04-15T15:04:08.885Z,11.69
2023-04-15T15:06:59.632Z,11.72
2023-04-15T15:09:50.715Z,11.71
2023-04-15T15:12:41.125Z,11.74
2023-04-15T15:15:31.627Z,11.78
2023-04-15T15:18:22.307Z,11.80
2023-04-15T15:21:13.506Z,11.85
2023-04-15T15:24:04.391Z,11.88
2023-04-15T15:26:54.835Z,11.97
2023-04-15T15:29:45.224Z,12.05
2023-04-15T15:32:35.929Z,12.10
2023-04-15T15:35:29.029Z,12.08
2023-04-15T15:38:19.826Z,12.02
2023-04-15T15:41:12.485Z,12.01
2023-04-15T15:44:03.023Z,12.00
2023-04-15T15:46:54.079Z,12.03
2023-04-15T15:49:44.542Z,12.02
2023-04-15T15:52:35.183Z,12.03
2023-04-15T15:55:27.363Z,12.02
2023-04-15T15:58:18.407Z,12.04
2023-04-15T16:01:09.538Z,11.99
2023-04-15T16:04:00.843Z,11.94
2023-04-15T16:06:52.164Z,11.88
2023-04-15T16:09:43.791Z,11.85
2023-04-15T16:12:35.445Z,11.83
2023-04-15T16:15:27.652Z,11.80
2023-04-15T16:18:18.157Z,11.75
2023-04-15T16:21:09.250Z,11.71
2023-04-15T16:24:00.687Z,11.67
2023-04-15T16:26:51.372Z,11.65
2023-04-15T16:29:42.184Z,11.63
2023-04-15T16:32:33.142Z,11.57
2023-04-15T16:35:24.007Z,11.51
2023-04-15T16:38:15.197Z,11.48
2023-04-15T16:41:06.928Z,11.44
2023-04-15T16:44:00.270Z,11.41
2023-04-15T16:46:52.703Z,11.39
2023-04-15T16:50:07.919Z,11.39
2023-04-15T16:53:00.296Z,11.41
2023-04-15T16:55:51.001Z,11.42
2023-04-15T16:58:42.020Z,11.42
2023-04-15T17:01:32.785Z,11.46
2023-04-15T17:04:23.859Z,11.52
2023-04-15T17:07:14.801Z,11.54
2023-04-15T17:10:06.334Z,11.56
2023-04-15T17:12:57.995Z,11.55
2023-04-15T17:15:51.590Z,11.53
2023-04-15T17:18:42.756Z,11.51
2023-04-15T17:21:33.420Z,11.48
2023-04-15T17:24:23.561Z,11.46
2023-04-15T17:27:14.087Z,11.44
2023-04-15T17:30:04.773Z,11.39
2023-04-15T17:32:55.706Z,11.35
2023-04-15T17:35:46.235Z,11.31
2023-04-15T17:38:36.666Z,11.26
2023-04-15T17:41:27.106Z,11.25
2023-04-15T17:44:17.549Z,11.21
2023-04-15T17:47:08.068Z,11.17
2023-04-15T17:50:08.587Z,11.14
2023-04-15T17:52:59.412Z,11.15
2023-04-15T17:55:50.494Z,11.11
2023-04-15T17:58:41.345Z,11.10
2023-04-15T18:01:32.142Z,11.09
2023-04-15T18:04:26.502Z,11.08
2023-04-15T18:07:18.269Z,11.06
2023-04-15T18:10:11.055Z,11.04
2023-04-15T18:13:03.524Z,10.99
2023-04-15T18:15:54.208Z,10.92
2023-04-15T18:18:44.780Z,10.93
2023-04-15T18:21:36.177Z,10.93
2023-04-15T18:24:27.252Z,10.91
2023-04-15T18:27:17.673Z,10.89
2023-04-15T18:30:10.179Z,10.82
2023-04-15T18:33:05.679Z,10.74
2023-04-15T18:35:57.749Z,10.69
2023-04-15T18:38:49.929Z,10.61
2023-04-15T18:41:51.575Z,10.49
2023-04-15T18:44:42.166Z,10.40
2023-04-15T18:47:33.347Z,10.33
2023-04-15T18:50:24.219Z,10.29
2023-04-15T18:53:17.777Z,10.25
2023-04-15T18:56:12.047Z,10.20
2023-04-15T18:59:29.362Z,10.12
2023-04-15T19:02:19.996Z,10.13
2023-04-15T19:05:12.338Z,10.15
2023-04-15T19:08:06.674Z,10.14
2023-04-15T19:11:03.903Z,10.11
2023-04-15T19:13:54.747Z,10.12
2023-04-15T19:16:48.469Z,10.06
2023-04-15T19:19:43.358Z,10.05
2023-04-15T19:22:37.585Z,9.99
2023-04-15T19:25:29.008Z,9.94
2023-04-15T19:28:19.875Z,9.87
2023-04-15T19:31:11.358Z,9.82
2023-04-15T19:34:02.377Z,9.77
2023-04-15T19:36:53.391Z,9.72
2023-04-15T19:39:44.537Z,9.67
2023-04-15T19:42:39.644Z,9.61
2023-04-15T19:45:32.388Z,9.57
2023-04-15T19:48:25.780Z,9.54
2023-04-15T19:51:16.404Z,9.53
2023-04-15T19:54:09.994Z,9.54
2023-04-15T19:57:01.728Z,9.58
2023-04-15T19:59:52.812Z,9.60
2023-04-15T20:02:44.175Z,9.61
2023-04-15T20:06:03.075Z,9.59
2023-04-15T20:13:35.179Z,9.57
2023-04-15T20:16:27.877Z,9.57
2023-04-15T20:19:19.137Z,9.55
2023-04-15T20:22:09.490Z,9.56
2023-04-15T20:25:00.951Z,9.56
2023-04-15T20:27:52.709Z,9.56
2023-04-15T20:30:46.646Z,9.57
2023-04-15T20:33:37.369Z,9.58
2023-04-15T20:36:28.343Z,9.60
2023-04-15T20:39:19.053Z,9.59
2023-04-15T20:42:10.616Z,9.59
2023-04-15T20:45:02.292Z,9.60
2023-04-15T20:47:56.224Z,9.62
2023-04-15T20:50:47.727Z,9.68
2023-04-15T20:53:42.179Z,9.70
2023-04-15T20:56:39.935Z,9.73
2023-04-15T20:59:34.953Z,9.75
2023-04-15T21:02:26.151Z,9.80
2023-04-15T21:05:17.109Z,9.83
2023-04-15T21:08:08.064Z,9.86
2023-04-15T21:10:58.881Z,9.90
2023-04-15T21:13:50.869Z,9.94
2023-04-15T21:16:41.604Z,9.97
2023-04-15T21:19:31.895Z,10.00
2023-04-15T21:22:22.406Z,10.02
2023-04-15T21:25:13.449Z,10.06
2023-04-15T21:28:04.103Z,10.09
2023-04-15T21:30:55.232Z,10.11
2023-04-15T21:33:45.594Z,10.15
2023-04-15T21:36:36.176Z,10.17
2023-04-15T21:39:26.597Z,10.18
2023-04-15T21:42:16.985Z,10.20
2023-04-15T21:45:11.633Z,10.21
2023-04-15T21:48:07.837Z,10.20
2023-04-15T21:51:01.685Z,10.22
2023-04-15T21:53:52.791Z,10.21
2023-04-15T21:56:43.730Z,10.20
2023-04-15T21:59:34.763Z,10.17
2023-04-15T22:02:26.106Z,10.13
2023-04-15T22:05:17.101Z,10.08
2023-04-15T22:08:08.298Z,10.03
2023-04-15T22:10:58.655Z,10.02
2023-04-15T22:13:49.142Z,10.00
2023-04-15T22:16:39.729Z,9.99
2023-04-15T22:19:29.958Z,9.99
2023-04-15T22:22:20.817Z,10.01
2023-04-15T22:25:17.207Z,10.00
2023-04-15T22:28:08.519Z,9.99
2023-04-15T22:30:59.274Z,9.98
2023-04-15T22:33:50.538Z,9.95
2023-04-15T22:36:41.152Z,9.90
2023-04-15T22:39:31.616Z,9.81
2023-04-15T22:42:22.223Z,9.77
2023-04-15T22:45:13.960Z,9.76
2023-04-15T22:48:05.557Z,9.71
2023-04-15T22:50:56.363Z,9.65
2023-04-15T22:53:46.980Z,9.56
2023-04-15T22:56:37.578Z,9.47
2023-04-15T22:59:28.263Z,9.42
2023-04-15T23:02:19.290Z,9.37
2023-04-15T23:05:12.047Z,9.35
2023-04-15T23:08:03.926Z,9.31
2023-04-15T23:10:54.278Z,9.30
2023-04-15T23:13:44.574Z,9.26
2023-04-15T23:16:35.182Z,9.24
2023-04-15T23:19:25.419Z,9.18
2023-04-15T23:22:15.740Z,9.14
2023-04-15T23:25:06.638Z,9.10
2023-04-15T23:27:57.313Z,9.05
2023-04-15T23:30:47.939Z,9.01
2023-04-15T23:33:38.885Z,8.97
2023-04-15T23:36:29.884Z,8.93
2023-04-15T23:39:20.824Z,8.88
2023-04-15T23:42:11.624Z,8.85
2023-04-15T23:45:02.298Z,8.82
2023-04-15T23:47:52.819Z,8.80
2023-04-15T23:50:43.437Z,8.80
2023-04-15T23:53:33.803Z,8.80
2023-04-15T23:56:24.379Z,8.80
2023-04-15T23:59:15.583Z,8.77
